Time;durP1;ratioP1;P1;durP2;ratioP2;P2;SDS_P1;SDS_P2;PMS_P1;PMS_P2;Temp;Humidity;BMP_temperature;BMP_pressure;BME280_temperature;BME280_humidity;BME280_pressure;Samples;Min_cycle;Max_cycle;Signal;HPM_P1;HPM_P2
2023/09/04 00:01:50;;;;;;;7.47;3.33;;;14.80;99.90;;;;;;5047494;28;20191;-86
2023/09/04 00:04:16;;;;;;;7.05;3.25;;;14.80;99.90;;;;;;5032956;28;20032;-86
2023/09/04 00:06:42;;;;;;;8.48;3.90;;;14.80;99.90;;;;;;5007308;28;20076;-86
2023/09/04 00:09:07;;;;;;;7.20;3.13;;;14.80;99.90;;;;;;5031991;28;20043;-86
2023/09/04 00:11:33;;;;;;;8.00;3.38;;;14.70;99.90;;;;;;5024215;28;20094;-86
2023/09/04 00:13:59;;;;;;;8.55;3.70;;;14.70;99.90;;;;;;5026855;28;20117;-86
2023/09/04 00:16:24;;;;;;;8.93;3.72;;;14.70;99.90;;;;;;5045688;28;20488;-86
2023/09/04 00:18:50;;;;;;;8.00;3.70;;;14.70;99.90;;;;;;5040842;28;20036;-86
2023/09/04 00:21:16;;;;;;;8.00;4.03;;;14.60;99.90;;;;;;5042951;28;20061;-86
2023/09/04 00:23:41;;;;;;;8.20;4.20;;;14.60;99.90;;;;;;5029288;28;20177;-86
2023/09/04 00:26:07;;;;;;;8.05;3.70;;;14.60;99.90;;;;;;5045487;28;20496;-86
2023/09/04 00:28:33;;;;;;;8.38;4.25;;;14.50;99.90;;;;;;5045358;28;20044;-87
2023/09/04 00:30:58;;;;;;;7.78;3.78;;;14.50;99.90;;;;;;5043061;28;20055;-86
2023/09/04 00:33:24;;;;;;;8.18;4.03;;;14.50;99.90;;;;;;5027290;28;20087;-86
2023/09/04 00:35:50;;;;;;;8.15;3.97;;;14.50;99.90;;;;;;5032072;28;20032;-86
2023/09/04 00:38:16;;;;;;;8.52;3.90;;;14.40;99.90;;;;;;5033030;28;20128;-86
2023/09/04 00:40:41;;;;;;;7.95;3.75;;;14.40;99.90;;;;;;5021005;28;20497;-86
2023/09/04 00:43:07;;;;;;;8.30;4.00;;;14.40;99.90;;;;;;5033246;28;20037;-86
2023/09/04 00:45:35;;;;;;;8.30;3.72;;;14.40;99.90;;;;;;5042915;28;20519;-86
2023/09/04 00:48:02;;;;;;;8.05;3.65;;;14.40;99.90;;;;;;5034633;28;20397;-86
2023/09/04 00:50:29;;;;;;;7.60;3.42;;;14.40;99.90;;;;;;5058245;28;20044;-86
2023/09/04 00:52:58;;;;;;;7.90;3.75;;;14.30;99.90;;;;;;5042480;28;20503;-87
2023/09/04 00:55:25;;;;;;;8.07;3.63;;;14.30;99.90;;;;;;5049651;28;20382;-86
2023/09/04 00:57:52;;;;;;;7.85;3.85;;;14.30;99.90;;;;;;5046683;28;20035;-86
2023/09/04 01:00:22;;;;;;;7.95;3.75;;;14.30;99.90;;;;;;5042225;28;20036;-86
2023/09/04 01:02:48;;;;;;;7.88;4.13;;;14.30;99.90;;;;;;5048490;28;20047;-86
2023/09/04 01:05:13;;;;;;;8.38;3.90;;;14.30;99.90;;;;;;5043312;28;20450;-86
2023/09/04 01:07:41;;;;;;;8.48;4.40;;;14.30;99.90;;;;;;5048183;28;20119;-87
2023/09/04 01:10:10;;;;;;;8.30;4.18;;;14.30;99.90;;;;;;5041168;28;20570;-86
2023/09/04 01:12:45;;;;;;;8.75;4.80;;;14.30;99.90;;;;;;5030036;28;20119;-86
2023/09/04 01:15:12;;;;;;;9.30;4.43;;;14.30;99.90;;;;;;5044615;28;20063;-86
2023/09/04 01:17:38;;;;;;;8.73;4.40;;;14.30;99.90;;;;;;5026809;28;20041;-86
2023/09/04 01:20:25;;;;;;;8.73;4.40;;;14.20;99.90;;;;;;5050474;28;20397;-86
2023/09/04 01:22:51;;;;;;;8.63;4.50;;;14.20;99.90;;;;;;5038657;28;20112;-87
2023/09/04 01:25:17;;;;;;;8.65;4.60;;;14.20;99.90;;;;;;5010288;28;20120;-86
2023/09/04 01:27:56;;;;;;;8.88;4.82;;;14.20;99.90;;;;;;5041076;28;20040;-87
2023/09/04 01:30:38;;;;;;;8.55;4.65;;;14.20;99.90;;;;;;5037245;28;20048;-87
2023/09/04 01:33:09;;;;;;;7.88;3.53;;;14.10;99.90;;;;;;5047111;28;20033;-86
2023/09/04 01:35:35;;;;;;;8.15;3.90;;;14.10;99.90;;;;;;5048440;28;20407;-86
2023/09/04 01:38:02;;;;;;;7.40;3.30;;;14.10;99.90;;;;;;5010761;28;20032;-86
2023/09/04 01:40:28;;;;;;;7.55;3.20;;;14.10;99.90;;;;;;5039937;28;20033;-87
2023/09/04 01:42:54;;;;;;;7.57;3.20;;;14.00;99.90;;;;;;5001388;28;20032;-86
2023/09/04 01:45:19;;;;;;;6.28;2.60;;;14.00;99.90;;;;;;5023476;28;20559;-86
2023/09/04 01:47:46;;;;;;;6.07;2.42;;;14.00;99.90;;;;;;5019764;28;20045;-86
2023/09/04 01:50:12;;;;;;;6.03;2.40;;;13.90;99.90;;;;;;5046765;28;20094;-86
2023/09/04 01:52:38;;;;;;;5.75;2.00;;;13.90;99.90;;;;;;5061941;28;20493;-86
2023/09/04 01:55:04;;;;;;;5.20;1.90;;;13.90;99.90;;;;;;5032051;28;20126;-86
2023/09/04 01:57:30;;;;;;;4.55;1.92;;;13.90;99.90;;;;;;5033215;28;20094;-87
2023/09/04 01:59:55;;;;;;;5.03;2.08;;;13.80;99.90;;;;;;5046581;28;20040;-86
2023/09/04 02:02:21;;;;;;;5.43;2.10;;;13.80;99.90;;;;;;5031936;28;20063;-86
2023/09/04 02:04:46;;;;;;;5.97;2.25;;;13.80;99.90;;;;;;5012147;28;20041;-86
2023/09/04 02:07:12;;;;;;;5.93;2.45;;;13.70;99.90;;;;;;5026783;28;20040;-86
2023/09/04 02:09:38;;;;;;;5.57;2.20;;;13.70;99.90;;;;;;5024678;28;20169;-86
2023/09/04 02:12:04;;;;;;;6.10;2.35;;;13.70;99.90;;;;;;5040365;28;20036;-86
2023/09/04 02:14:29;;;;;;;5.75;2.35;;;13.60;99.90;;;;;;5024567;28;20041;-87
2023/09/04 02:16:55;;;;;;;6.55;2.42;;;13.60;99.90;;;;;;5016193;28;20529;-86
2023/09/04 02:19:21;;;;;;;6.72;2.53;;;13.60;99.90;;;;;;4998223;28;20635;-86
2023/09/04 02:21:46;;;;;;;6.68;2.55;;;13.60;99.90;;;;;;5029594;28;20029;-86
2023/09/04 02:24:12;;;;;;;6.80;2.70;;;13.60;99.90;;;;;;5007593;28;20513;-86
2023/09/04 02:26:38;;;;;;;6.68;2.50;;;13.50;99.90;;;;;;5019685;28;20045;-87
2023/09/04 02:29:04;;;;;;;6.05;2.40;;;13.50;99.90;;;;;;5010018;28;20075;-86
2023/09/04 02:31:29;;;;;;;6.95;2.83;;;13.50;99.90;;;;;;5011428;28;20060;-87
2023/09/04 02:33:55;;;;;;;6.85;3.00;;;13.50;99.90;;;;;;5015104;28;20138;-86
2023/09/04 02:36:23;;;;;;;7.10;2.97;;;13.50;99.90;;;;;;5006571;28;20036;-87
2023/09/04 02:38:49;;;;;;;7.63;3.00;;;13.50;99.90;;;;;;5022985;28;20056;-86
2023/09/04 02:41:14;;;;;;;7.50;3.13;;;13.50;99.90;;;;;;5007480;28;20490;-87
2023/09/04 02:43:40;;;;;;;7.25;3.05;;;13.40;99.90;;;;;;4991956;28;20029;-87
2023/09/04 02:46:06;;;;;;;7.53;2.90;;;13.50;99.90;;;;;;5009269;28;20461;-86
2023/09/04 02:48:32;;;;;;;9.88;3.53;;;13.50;99.90;;;;;;5018574;28;20133;-87
2023/09/04 02:50:58;;;;;;;8.10;3.92;;;13.40;99.90;;;;;;4997903;28;20394;-87
2023/09/04 02:53:26;;;;;;;8.60;3.42;;;13.40;99.90;;;;;;5033311;28;20099;-87
2023/09/04 02:55:53;;;;;;;8.18;3.67;;;13.30;99.90;;;;;;5010577;28;20038;-87
2023/09/04 02:58:21;;;;;;;8.05;3.83;;;13.40;99.90;;;;;;5019991;28;20123;-87
2023/09/04 03:00:46;;;;;;;8.95;4.30;;;13.40;99.90;;;;;;5028520;28;20069;-87
2023/09/04 03:03:12;;;;;;;8.15;3.97;;;13.40;99.90;;;;;;5032551;28;20130;-87
2023/09/04 03:05:38;;;;;;;9.23;3.88;;;13.30;99.90;;;;;;5013729;28;20269;-87
2023/09/04 03:08:04;;;;;;;9.07;4.07;;;13.30;99.90;;;;;;5046982;28;20119;-87
2023/09/04 03:10:31;;;;;;;8.57;4.05;;;13.30;99.90;;;;;;5015532;28;20410;-86
2023/09/04 03:12:56;;;;;;;10.45;4.00;;;13.30;99.90;;;;;;5012697;28;20095;-86
2023/09/04 03:15:22;;;;;;;8.35;4.10;;;13.30;99.90;;;;;;5021227;28;20053;-86
2023/09/04 03:17:48;;;;;;;8.35;4.10;;;13.30;99.90;;;;;;5045071;28;20036;-86
2023/09/04 03:20:19;;;;;;;11.55;4.63;;;13.30;99.90;;;;;;5048945;28;20056;-86
2023/09/04 03:22:45;;;;;;;8.60;3.92;;;13.20;99.90;;;;;;5062322;28;20043;-87
2023/09/04 03:25:11;;;;;;;9.63;4.20;;;13.20;99.90;;;;;;5050182;28;20435;-86
2023/09/04 03:27:37;;;;;;;8.90;4.30;;;13.20;99.90;;;;;;5065121;28;20116;-87
2023/09/04 03:30:03;;;;;;;9.27;4.47;;;13.20;99.90;;;;;;5032374;28;20048;-87
2023/09/04 03:32:29;;;;;;;8.90;4.13;;;13.10;99.90;;;;;;5027032;28;20395;-87
2023/09/04 03:34:55;;;;;;;9.45;4.22;;;13.10;99.90;;;;;;5031275;28;20043;-87
2023/09/04 03:37:20;;;;;;;8.90;4.10;;;13.10;99.90;;;;;;5030688;28;20110;-87
2023/09/04 03:39:46;;;;;;;8.90;3.92;;;13.10;99.90;;;;;;5051147;28;20047;-87
2023/09/04 03:42:12;;;;;;;9.25;4.30;;;13.10;99.90;;;;;;5047646;28;20119;-87
2023/09/04 03:44:38;;;;;;;9.57;4.50;;;13.10;99.90;;;;;;5036062;28;20040;-86
2023/09/04 03:47:04;;;;;;;8.93;4.47;;;13.00;99.90;;;;;;5039497;28;20044;-86
2023/09/04 03:49:29;;;;;;;9.35;4.50;;;13.00;99.90;;;;;;5025607;28;20083;-87
2023/09/04 03:51:55;;;;;;;9.43;4.47;;;13.00;99.90;;;;;;5027981;28;20029;-87
2023/09/04 03:54:22;;;;;;;9.15;4.55;;;13.00;99.90;;;;;;5051976;28;20048;-86
2023/09/04 03:56:49;;;;;;;8.48;4.22;;;13.00;99.90;;;;;;5036809;28;20397;-87
2023/09/04 03:59:15;;;;;;;9.52;4.63;;;13.00;99.90;;;;;;5049276;28;20123;-87
2023/09/04 04:01:40;;;;;;;9.30;4.63;;;13.00;99.90;;;;;;5029652;28;20126;-87
2023/09/04 04:04:09;;;;;;;9.32;4.60;;;13.00;99.90;;;;;;5031236;28;20045;-87
2023/09/04 04:06:35;;;;;;;9.30;5.07;;;13.00;99.90;;;;;;5040027;28;20485;-87
2023/09/04 04:09:01;;;;;;;9.77;5.00;;;12.90;99.90;;;;;;5047888;28;20033;-86
2023/09/04 04:11:27;;;;;;;10.02;5.40;;;12.90;99.90;;;;;;5048299;28;20294;-86
2023/09/04 04:13:52;;;;;;;10.40;5.22;;;12.90;99.90;;;;;;5060230;28;20052;-86
2023/09/04 04:16:18;;;;;;;9.52;5.05;;;13.00;99.90;;;;;;5028970;28;20406;-87
2023/09/04 04:18:44;;;;;;;9.90;5.30;;;13.00;99.90;;;;;;5029005;28;20120;-87
2023/09/04 04:21:10;;;;;;;10.75;6.13;;;13.00;99.90;;;;;;5038253;28;20033;-86
2023/09/04 04:23:35;;;;;;;10.93;5.70;;;13.00;99.90;;;;;;5026522;28;20071;-86
2023/09/04 04:26:03;;;;;;;11.18;6.13;;;13.00;99.90;;;;;;5031201;28;20029;-87
2023/09/04 04:28:28;;;;;;;10.63;5.95;;;12.90;99.90;;;;;;5028186;28;20040;-87
2023/09/04 04:30:54;;;;;;;10.60;6.35;;;13.00;99.90;;;;;;5024719;28;20469;-87
2023/09/04 04:33:21;;;;;;;11.57;6.57;;;13.00;99.90;;;;;;5030865;28;20063;-87
2023/09/04 04:35:52;;;;;;;11.70;6.97;;;12.90;99.90;;;;;;5028600;28;20036;-87
2023/09/04 04:38:18;;;;;;;11.02;6.47;;;12.90;99.90;;;;;;5029975;28;20060;-87
2023/09/04 04:40:43;;;;;;;11.45;6.80;;;12.90;99.90;;;;;;5039882;28;20064;-86
2023/09/04 04:43:09;;;;;;;11.10;6.18;;;12.90;99.90;;;;;;5020255;28;20128;-87
2023/09/04 04:45:35;;;;;;;11.27;6.47;;;12.90;99.90;;;;;;5043907;28;20063;-87
2023/09/04 04:48:03;;;;;;;10.38;5.25;;;12.90;99.90;;;;;;5027959;28;20063;-87
2023/09/04 04:50:28;;;;;;;9.60;4.18;;;12.80;99.90;;;;;;5031907;28;20041;-87
2023/09/04 04:52:54;;;;;;;8.40;3.88;;;12.80;99.90;;;;;;5022439;28;20051;-87
2023/09/04 04:55:20;;;;;;;7.68;3.20;;;12.80;99.90;;;;;;5016278;28;21710;-87
2023/09/04 04:57:46;;;;;;;7.05;2.80;;;12.70;99.90;;;;;;5005775;28;20039;-87
2023/09/04 05:00:12;;;;;;;6.38;2.30;;;12.60;99.90;;;;;;5044536;28;20045;-87
2023/09/04 05:02:38;;;;;;;6.10;2.20;;;12.60;99.90;;;;;;5056383;28;20045;-87
2023/09/04 05:05:04;;;;;;;5.38;2.05;;;12.60;99.90;;;;;;5040519;28;20036;-87
2023/09/04 05:07:30;;;;;;;6.00;2.00;;;12.60;99.90;;;;;;5034358;28;20048;-86
2023/09/04 05:09:56;;;;;;;5.95;2.13;;;12.50;99.90;;;;;;5027145;28;20498;-86
2023/09/04 05:12:23;;;;;;;4.07;1.70;;;12.50;99.90;;;;;;5067031;28;20048;-87
2023/09/04 05:14:49;;;;;;;5.28;1.95;;;12.50;99.90;;;;;;5049169;28;20049;-87
2023/09/04 05:17:14;;;;;;;5.00;1.90;;;12.50;99.90;;;;;;5037496;28;20052;-87
2023/09/04 05:19:40;;;;;;;4.45;1.75;;;12.50;99.90;;;;;;5021985;28;20033;-86
2023/09/04 05:22:06;;;;;;;5.45;2.00;;;12.50;99.90;;;;;;5053994;28;20045;-87
2023/09/04 05:24:32;;;;;;;4.80;1.83;;;12.20;99.90;;;;;;5015714;28;20120;-86
2023/09/04 05:26:57;;;;;;;5.07;1.92;;;12.50;99.90;;;;;;5040398;28;20170;-86
2023/09/04 05:29:24;;;;;;;5.28;1.92;;;12.60;99.90;;;;;;5044517;28;20198;-87
2023/09/04 05:31:52;;;;;;;5.75;2.20;;;12.60;99.90;;;;;;5034628;28;20045;-88
2023/09/04 05:34:19;;;;;;;5.68;2.20;;;12.70;99.90;;;;;;5027715;28;20044;-87
2023/09/04 05:36:46;;;;;;;5.88;2.20;;;12.70;99.90;;;;;;5037792;28;20037;-87
2023/09/04 05:39:11;;;;;;;6.30;2.40;;;12.70;99.90;;;;;;5045790;28;20041;-87
2023/09/04 05:41:37;;;;;;;6.43;2.38;;;12.80;99.90;;;;;;5024124;28;20094;-87
2023/09/04 05:44:03;;;;;;;7.32;2.78;;;12.90;99.90;;;;;;5063584;28;20041;-87
2023/09/04 05:46:33;;;;;;;7.22;2.95;;;12.90;99.90;;;;;;5023611;28;20033;-87
2023/09/04 05:48:58;;;;;;;6.57;2.67;;;13.00;99.90;;;;;;5056543;28;20037;-87
2023/09/04 05:51:24;;;;;;;7.20;2.90;;;13.00;99.90;;;;;;5035700;28;20059;-87
2023/09/04 05:53:50;;;;;;;7.93;3.30;;;13.10;99.90;;;;;;5024919;28;20037;-87
2023/09/04 05:56:17;;;;;;;7.28;3.05;;;13.20;99.90;;;;;;5038973;28;20128;-87
2023/09/04 05:58:50;;;;;;;7.55;3.38;;;13.30;99.90;;;;;;5040575;28;20048;-87
2023/09/04 06:01:18;;;;;;;7.78;3.78;;;13.40;99.90;;;;;;5061395;28;20378;-87
2023/09/04 06:03:45;;;;;;;8.50;3.90;;;13.40;99.90;;;;;;5062653;28;20032;-87
2023/09/04 06:06:11;;;;;;;8.60;4.15;;;13.50;99.90;;;;;;5017931;28;20130;-87
2023/09/04 06:08:37;;;;;;;8.65;4.30;;;13.60;99.90;;;;;;5045734;28;20080;-87
2023/09/04 06:11:04;;;;;;;9.80;4.85;;;13.70;99.90;;;;;;5018540;28;20152;-87
2023/09/04 06:13:33;;;;;;;8.73;4.53;;;13.80;99.90;;;;;;5044529;28;20044;-87
2023/09/04 06:16:00;;;;;;;8.93;4.68;;;13.90;99.90;;;;;;5022444;28;20044;-88
2023/09/04 06:18:29;;;;;;;9.48;5.13;;;14.00;99.90;;;;;;5057338;28;20036;-84
2023/09/04 06:20:55;;;;;;;10.73;5.63;;;14.10;99.90;;;;;;5043740;28;20047;-86
2023/09/04 06:23:21;;;;;;;11.15;5.95;;;14.30;99.90;;;;;;5029282;28;20599;-88
2023/09/04 06:25:47;;;;;;;11.02;6.22;;;14.40;99.90;;;;;;5058670;28;20036;-88
2023/09/04 06:28:13;;;;;;;11.73;6.20;;;14.50;99.90;;;;;;5036407;28;20044;-88
2023/09/04 06:30:39;;;;;;;10.05;5.38;;;14.70;99.90;;;;;;5062761;28;20043;-87
2023/09/04 06:33:05;;;;;;;10.02;5.68;;;14.80;99.90;;;;;;5044878;28;20046;-86
2023/09/04 06:35:32;;;;;;;10.98;6.00;;;14.90;99.90;;;;;;5059384;28;20150;-86
2023/09/04 06:37:58;;;;;;;11.30;6.32;;;15.00;99.90;;;;;;5062238;28;20032;-87
2023/09/04 06:40:24;;;;;;;11.65;6.30;;;15.10;99.90;;;;;;5049268;28;20041;-87
2023/09/04 06:42:53;;;;;;;11.48;6.05;;;15.20;99.90;;;;;;5029765;28;20052;-87
2023/09/04 06:45:19;;;;;;;11.20;5.97;;;15.30;99.90;;;;;;5043231;28;20051;-88
2023/09/04 06:47:45;;;;;;;11.85;7.07;;;15.40;99.90;;;;;;5015764;28;20504;-87
2023/09/04 06:50:10;;;;;;;11.35;6.30;;;15.50;99.90;;;;;;5040189;28;20071;-87
2023/09/04 06:52:36;;;;;;;11.32;6.60;;;15.60;99.90;;;;;;5029790;28;20085;-88
2023/09/04 06:55:03;;;;;;;11.98;7.00;;;15.70;99.90;;;;;;5033253;28;20048;-87
2023/09/04 06:57:28;;;;;;;12.07;6.78;;;15.80;99.90;;;;;;5064123;28;20040;-87
2023/09/04 06:59:57;;;;;;;11.68;6.70;;;15.90;99.90;;;;;;5047833;28;20036;-88
2023/09/04 07:02:24;;;;;;;12.23;7.32;;;16.00;99.90;;;;;;5031213;28;20481;-89
2023/09/04 07:04:50;;;;;;;11.80;6.45;;;16.10;99.90;;;;;;5041721;28;20041;-89
2023/09/04 07:07:16;;;;;;;12.35;7.07;;;16.20;99.90;;;;;;5031673;28;20040;-87
2023/09/04 07:09:42;;;;;;;12.32;6.63;;;16.30;99.90;;;;;;5045641;28;20032;-87
2023/09/04 07:12:11;;;;;;;10.80;6.25;;;16.40;99.90;;;;;;5049195;28;20068;-87
2023/09/04 07:14:38;;;;;;;10.95;6.05;;;16.60;99.90;;;;;;5041800;28;20118;-88
2023/09/04 07:17:03;;;;;;;9.77;5.95;;;16.70;99.90;;;;;;5066450;28;20516;-87
2023/09/04 07:19:29;;;;;;;12.25;6.07;;;16.90;99.90;;;;;;5033399;28;20085;-88
2023/09/04 07:21:55;;;;;;;10.40;5.90;;;16.90;99.90;;;;;;5047856;28;20488;-88
2023/09/04 07:24:21;;;;;;;10.93;6.28;;;17.10;99.90;;;;;;5033378;28;20028;-88
2023/09/04 07:26:46;;;;;;;10.52;5.85;;;17.10;99.90;;;;;;5032002;28;20052;-88
2023/09/04 07:29:16;;;;;;;10.38;5.55;;;17.30;99.90;;;;;;5039131;28;20050;-87
2023/09/04 07:31:41;;;;;;;9.70;5.10;;;17.30;99.90;;;;;;5033362;28;20040;-88
2023/09/04 07:34:07;;;;;;;10.10;4.88;;;17.50;99.90;;;;;;5044122;28;20051;-88
2023/09/04 07:36:33;;;;;;;8.10;4.00;;;17.60;99.90;;;;;;5035692;28;20051;-88
2023/09/04 07:38:58;;;;;;;9.35;4.53;;;17.60;99.90;;;;;;5045326;28;20040;-87
2023/09/04 07:41:25;;;;;;;8.75;4.15;;;17.70;99.90;;;;;;5026598;28;20040;-88
2023/09/04 07:43:52;;;;;;;7.82;3.95;;;17.90;99.90;;;;;;5041296;28;20044;-87
2023/09/04 07:46:18;;;;;;;9.07;4.20;;;18.00;99.90;;;;;;5035534;28;20048;-88
2023/09/04 07:48:43;;;;;;;8.48;3.97;;;18.10;99.90;;;;;;5029428;28;20070;-88
2023/09/04 07:51:09;;;;;;;8.80;4.53;;;18.20;99.90;;;;;;5031264;28;20498;-87
2023/09/04 07:53:35;;;;;;;9.20;3.90;;;19.20;99.90;;;;;;5050002;28;20028;-88
2023/09/04 07:56:01;;;;;;;8.43;4.40;;;18.40;99.90;;;;;;5077002;28;20044;-88
2023/09/04 07:58:27;;;;;;;8.25;3.88;;;18.60;99.90;;;;;;5032663;28;20036;-87
2023/09/04 08:00:52;;;;;;;8.98;4.38;;;18.70;99.90;;;;;;5078387;28;20118;-87
2023/09/04 08:03:18;;;;;;;7.68;3.83;;;18.80;99.90;;;;;;5032385;28;20036;-87
2023/09/04 08:05:44;;;;;;;10.90;4.13;;;18.90;99.90;;;;;;5042257;28;20047;-87
2023/09/04 08:08:11;;;;;;;8.18;3.45;;;19.00;99.90;;;;;;5043779;28;20044;-87
2023/09/04 08:10:42;;;;;;;7.88;3.67;;;19.10;99.90;;;;;;5042855;28;20097;-87
2023/09/04 08:13:13;;;;;;;8.20;3.67;;;19.10;99.90;;;;;;5042788;28;20127;-87
2023/09/04 08:15:38;;;;;;;7.88;3.17;;;19.20;99.90;;;;;;5050425;28;20060;-86
2023/09/04 08:18:06;;;;;;;8.77;3.47;;;19.30;99.90;;;;;;5048941;28;20115;-87
2023/09/04 08:20:32;;;;;;;9.13;3.42;;;19.50;99.90;;;;;;5045488;28;20458;-88
2023/09/04 08:22:57;;;;;;;7.55;3.28;;;19.50;99.90;;;;;;5047796;28;20123;-87
2023/09/04 08:25:23;;;;;;;8.50;3.72;;;19.60;99.90;;;;;;5029574;28;20044;-87
2023/09/04 08:27:49;;;;;;;8.90;3.70;;;19.70;99.90;;;;;;5029280;28;20106;-88
2023/09/04 08:30:15;;;;;;;8.48;3.72;;;19.80;99.90;;;;;;5023112;28;20067;-88
2023/09/04 08:32:40;;;;;;;8.73;3.58;;;19.90;99.90;;;;;;5030655;28;20389;-87
2023/09/04 08:35:06;;;;;;;8.93;3.22;;;20.00;99.90;;;;;;5028055;28;20099;-88
2023/09/04 08:37:33;;;;;;;7.82;3.10;;;20.00;99.90;;;;;;5038669;28;20654;-88
2023/09/04 08:39:59;;;;;;;10.63;3.15;;;20.10;99.90;;;;;;5047250;28;20738;-87
2023/09/04 08:42:27;;;;;;;8.05;3.03;;;20.20;99.90;;;;;;5031207;28;20036;-88
2023/09/04 08:44:54;;;;;;;9.93;2.80;;;20.30;99.90;;;;;;5033490;28;20075;-88
2023/09/04 08:47:23;;;;;;;8.23;3.17;;;20.40;99.90;;;;;;5047053;28;20513;-87
2023/09/04 08:49:51;;;;;;;8.10;2.97;;;20.40;99.90;;;;;;5038387;28;20064;-87
2023/09/04 08:52:17;;;;;;;7.22;2.85;;;20.50;99.90;;;;;;5042740;28;20261;-88
2023/09/04 08:54:43;;;;;;;8.32;2.70;;;20.60;99.90;;;;;;5027233;28;20051;-88
2023/09/04 08:57:10;;;;;;;8.52;2.60;;;20.60;99.90;;;;;;5070686;28;20045;-88
2023/09/04 08:59:36;;;;;;;6.88;2.80;;;20.70;99.90;;;;;;5038849;28;20067;-88
2023/09/04 09:02:06;;;;;;;6.85;2.60;;;20.80;99.90;;;;;;5030482;28;21844;-88
2023/09/04 09:04:33;;;;;;;8.00;2.70;;;20.90;99.90;;;;;;5037548;28;20036;-90
2023/09/04 09:07:01;;;;;;;7.97;2.70;;;20.90;99.90;;;;;;5047103;28;20044;-89
2023/09/04 09:09:28;;;;;;;7.47;2.50;;;21.00;99.90;;;;;;5036458;28;20048;-89
2023/09/04 09:11:54;;;;;;;6.30;2.55;;;21.00;99.90;;;;;;5014635;28;20036;-88
2023/09/04 09:14:26;;;;;;;5.88;2.15;;;21.10;99.90;;;;;;5028449;28;20098;-88
2023/09/04 09:17:03;;;;;;;;;;;21.10;99.90;;;;;;5058996;28;20101;-89
2023/09/04 09:19:34;;;;;;;6.43;2.35;;;21.10;99.90;;;;;;5037874;28;21429;-88
2023/09/04 09:22:21;;;;;;;6.38;2.30;;;21.20;99.90;;;;;;5055294;28;20135;-88
2023/09/04 09:25:00;;;;;;;6.38;2.10;;;21.30;99.90;;;;;;5049311;28;20049;-87
2023/09/04 09:27:28;;;;;;;7.75;2.38;;;21.30;99.90;;;;;;5021277;28;20037;-88
2023/09/04 09:29:59;;;;;;;7.00;2.30;;;21.40;99.90;;;;;;5066260;28;20130;-88
2023/09/04 09:32:33;;;;;;;6.45;2.30;;;21.50;99.90;;;;;;5043890;28;20052;-87
2023/09/04 09:35:00;;;;;;;6.70;2.30;;;21.50;99.90;;;;;;5034374;28;20047;-89
2023/09/04 09:37:31;;;;;;;8.57;2.80;;;21.50;99.90;;;;;;5024464;28;20523;-88
2023/09/04 09:39:57;;;;;;;6.93;2.67;;;21.70;99.90;;;;;;5034722;28;20135;-87
2023/09/04 09:42:25;;;;;;;6.05;2.35;;;21.60;99.90;;;;;;5039097;28;20119;-87
2023/09/04 09:44:51;;;;;;;6.75;2.85;;;21.60;99.90;;;;;;5025519;28;20033;-87
2023/09/04 09:47:17;;;;;;;8.15;2.88;;;21.60;99.90;;;;;;5034512;28;20052;-89
2023/09/04 09:49:45;;;;;;;6.85;2.65;;;21.80;99.90;;;;;;5022139;28;20037;-89
2023/09/04 09:52:11;;;;;;;6.55;2.60;;;21.70;99.90;;;;;;5020215;28;20044;-89
2023/09/04 09:54:38;;;;;;;7.85;2.58;;;21.90;99.90;;;;;;5056976;28;20036;-88
2023/09/04 09:57:09;;;;;;;7.70;2.60;;;21.90;99.90;;;;;;5049825;28;20525;-88
2023/09/04 09:59:36;;;;;;;7.28;2.33;;;21.90;99.90;;;;;;5069754;28;20044;-87
2023/09/04 10:02:05;;;;;;;7.53;2.40;;;22.00;99.90;;;;;;5035612;28;20059;-88
2023/09/04 10:04:32;;;;;;;7.25;2.50;;;22.10;99.90;;;;;;5036630;28;20025;-89
2023/09/04 10:07:03;;;;;;;7.40;2.75;;;22.20;99.90;;;;;;5034096;28;20055;-88
2023/09/04 10:09:40;;;;;;;5.63;2.38;;;22.20;99.90;;;;;;5042707;28;20044;-88
2023/09/04 10:12:19;;;;;;;6.05;2.05;;;22.30;99.90;;;;;;5041960;28;20044;-87
2023/09/04 10:14:46;;;;;;;6.47;2.35;;;22.30;99.90;;;;;;5041215;28;20045;-89
2023/09/04 10:17:18;;;;;;;6.80;2.40;;;22.30;99.90;;;;;;5029744;28;20145;-88
2023/09/04 10:19:46;;;;;;;6.90;2.58;;;22.40;99.90;;;;;;5037921;28;20509;-88
2023/09/04 10:22:20;;;;;;;5.72;2.25;;;22.50;99.90;;;;;;5039642;28;20063;-88
2023/09/04 10:24:58;;;;;;;5.43;2.20;;;22.50;99.90;;;;;;5034129;28;20040;-89
2023/09/04 10:27:28;;;;;;;7.22;2.60;;;22.50;99.90;;;;;;5043340;28;20068;-87
2023/09/04 10:30:05;;;;;;;7.22;2.70;;;22.50;99.90;;;;;;5056135;28;20442;-89
2023/09/04 10:32:30;;;;;;;6.50;2.33;;;22.50;99.90;;;;;;5041984;28;20032;-90
2023/09/04 10:34:57;;;;;;;5.80;2.30;;;22.60;99.90;;;;;;5029030;28;20163;-89
2023/09/04 10:37:26;;;;;;;5.53;2.10;;;23.00;99.90;;;;;;5023864;28;20040;-89
2023/09/04 10:39:53;;;;;;;6.90;2.25;;;22.50;99.90;;;;;;5043919;28;20072;-89
2023/09/04 10:42:23;;;;;;;5.85;2.10;;;22.80;99.90;;;;;;5035501;28;20128;-89
2023/09/04 10:44:53;;;;;;;5.38;2.00;;;22.90;99.90;;;;;;5039526;28;20116;-89
2023/09/04 10:47:20;;;;;;;6.32;2.30;;;22.90;99.90;;;;;;5047854;28;20049;-90
2023/09/04 10:49:47;;;;;;;7.80;2.47;;;23.00;99.90;;;;;;5066531;28;20485;-89
2023/09/04 10:52:14;;;;;;;5.15;2.00;;;23.00;99.90;;;;;;5030644;28;20051;-90
2023/09/04 10:54:40;;;;;;;5.07;1.95;;;22.90;99.90;;;;;;5023861;28;20036;-90
2023/09/04 10:57:10;;;;;;;6.05;2.20;;;22.90;99.90;;;;;;5069475;28;20532;-90
2023/09/04 10:59:55;;;;;;;5.75;2.13;;;23.00;99.90;;;;;;5056628;28;20115;-89
2023/09/04 11:02:43;;;;;;;4.40;1.90;;;23.00;99.90;;;;;;5040887;28;20405;-90
2023/09/04 11:05:10;;;;;;;6.45;2.05;;;23.10;99.90;;;;;;5013390;28;21127;-90
2023/09/04 11:07:36;;;;;;;6.03;2.20;;;23.10;99.90;;;;;;5064360;28;20131;-90
2023/09/04 11:10:27;;;;;;;4.35;1.80;;;23.10;99.90;;;;;;5023564;28;20393;-89
2023/09/04 11:12:53;;;;;;;6.03;2.00;;;23.20;99.90;;;;;;5049204;28;20040;-89
2023/09/04 11:15:19;;;;;;;6.40;2.20;;;23.00;99.90;;;;;;5025569;28;20064;-90
2023/09/04 11:17:48;;;;;;;6.80;2.10;;;23.30;99.90;;;;;;5044413;28;20593;-88
2023/09/04 11:20:15;;;;;;;6.53;2.05;;;23.30;99.90;;;;;;5047775;28;20040;-89
2023/09/04 11:22:48;;;;;;;5.45;1.88;;;23.30;99.90;;;;;;5025881;28;20031;-88
2023/09/04 11:25:14;;;;;;;;;;;23.30;99.90;;;;;;5041667;28;20047;-88
2023/09/04 11:27:42;;;;;;;6.32;1.88;;;23.70;99.90;;;;;;5056318;28;19924;-88
2023/09/04 11:30:08;;;;;;;5.05;1.90;;;23.30;99.90;;;;;;5040188;28;20048;-88
2023/09/04 11:32:37;;;;;;;4.68;1.85;;;23.40;99.90;;;;;;5027008;28;20112;-89
2023/09/04 11:35:03;;;;;;;5.15;1.92;;;22.10;99.90;;;;;;5047315;28;20170;-88
2023/09/04 11:37:32;;;;;;;4.47;1.60;;;23.30;99.90;;;;;;5022213;28;20051;-91
2023/09/04 11:40:00;;;;;;;4.85;1.80;;;23.30;99.90;;;;;;5047961;28;20044;-89
2023/09/04 11:42:29;;;;;;;4.93;2.10;;;23.30;99.90;;;;;;5040797;28;20136;-88
2023/09/04 11:44:55;;;;;;;4.28;1.77;;;23.40;99.90;;;;;;5056621;28;20037;-88
2023/09/04 11:47:22;;;;;;;5.68;1.70;;;23.30;99.90;;;;;;5033457;28;20556;-89
2023/09/04 11:49:49;;;;;;;6.63;1.90;;;23.40;99.90;;;;;;5048366;28;20118;-90
2023/09/04 11:52:19;;;;;;;5.00;1.80;;;23.60;99.90;;;;;;5047450;28;20051;-89
2023/09/04 11:54:45;;;;;;;3.65;1.55;;;23.40;99.90;;;;;;5045898;28;20036;-90
2023/09/04 11:57:11;;;;;;;3.65;1.60;;;23.50;99.90;;;;;;5028452;28;20047;-90
2023/09/04 11:59:39;;;;;;;3.53;1.58;;;23.50;99.90;;;;;;5047321;28;20488;-89
2023/09/04 12:02:06;;;;;;;5.85;1.80;;;23.50;99.90;;;;;;5046730;28;20039;-88
2023/09/04 12:04:32;;;;;;;4.43;1.70;;;23.60;99.90;;;;;;5044979;28;20119;-89
2023/09/04 12:07:02;;;;;;;4.93;1.65;;;23.60;99.90;;;;;;5038218;28;20045;-89
2023/09/04 12:09:29;;;;;;;5.53;1.85;;;23.50;99.90;;;;;;5039170;28;20123;-89
2023/09/04 12:11:56;;;;;;;5.20;1.80;;;23.60;99.90;;;;;;5047761;28;20097;-89
2023/09/04 12:14:22;;;;;;;6.50;1.83;;;23.80;99.90;;;;;;5080179;28;20036;-87
2023/09/04 12:16:48;;;;;;;4.63;1.90;;;23.90;99.90;;;;;;5039351;28;20130;-87
2023/09/04 12:19:15;;;;;;;4.82;1.63;;;23.90;99.90;;;;;;5022278;28;20785;-88
2023/09/04 12:21:41;;;;;;;5.28;1.70;;;23.90;99.90;;;;;;5066198;28;20070;-89
2023/09/04 12:24:15;;;;;;;5.88;2.72;;;23.90;99.90;;;;;;5032024;28;20032;-89
2023/09/04 12:26:41;;;;;;;3.92;1.50;;;23.90;99.90;;;;;;5040780;28;20059;-88
2023/09/04 12:29:08;;;;;;;4.47;1.60;;;23.80;99.90;;;;;;5042292;28;20492;-89
2023/09/04 12:31:35;;;;;;;3.83;1.50;;;;;;;;;;5045436;28;20040;-88
2023/09/04 12:34:02;;;;;;;6.18;1.90;;;23.80;99.90;;;;;;5042757;28;20048;-88
2023/09/04 12:36:31;;;;;;;4.80;1.80;;;23.90;99.90;;;;;;5040524;28;20123;-88
2023/09/04 12:38:57;;;;;;;4.75;1.73;;;23.90;99.90;;;;;;5047776;28;20025;-88
2023/09/04 12:41:22;;;;;;;4.70;1.70;;;23.90;99.90;;;;;;5029293;28;21854;-88
2023/09/04 12:43:48;;;;;;;6.75;2.00;;;24.00;99.90;;;;;;5047736;28;20044;-87
2023/09/04 12:46:14;;;;;;;5.57;1.65;;;23.90;99.90;;;;;;5065265;28;20036;-88